createdAt,value
2022-09-06T00:00:02.201Z,19.15
2022-09-06T00:03:24.240Z,19.14
2022-09-06T00:06:41.857Z,19.04
2022-09-06T00:09:43.875Z,18.86
2022-09-06T00:13:07.695Z,18.91
2022-09-06T00:16:30.556Z,18.78
2022-09-06T00:19:51.875Z,18.82
2022-09-06T00:22:59.804Z,18.78
2022-09-06T00:26:02.861Z,18.82
2022-09-06T00:29:04.489Z,18.81
2022-09-06T00:32:05.946Z,18.82
2022-09-06T00:35:07.455Z,18.86
2022-09-06T00:38:08.901Z,18.82
2022-09-06T00:41:13.949Z,18.74
2022-09-06T00:44:15.408Z,18.70
2022-09-06T00:47:17.389Z,18.67
2022-09-06T00:50:19.182Z,18.72
2022-09-06T00:53:21.343Z,18.83
2022-09-06T00:56:24.789Z,18.79
2022-09-06T00:59:48.212Z,18.69
2022-09-06T01:03:10.464Z,18.90
2022-09-06T01:06:24.232Z,18.83
2022-09-06T01:09:43.993Z,19.00
2022-09-06T01:13:49.451Z,19.15
2022-09-06T01:17:47.703Z,19.13
2022-09-06T01:21:46.723Z,19.09
2022-09-06T01:25:03.286Z,18.72
2022-09-06T01:28:35.239Z,18.71
2022-09-06T01:31:58.884Z,19.00
2022-09-06T01:35:40.248Z,18.65
2022-09-06T01:39:02.232Z,19.10
2022-09-06T01:42:30.700Z,19.11
2022-09-06T01:46:03.178Z,18.99
2022-09-06T01:49:44.287Z,18.83
2022-09-06T01:53:02.546Z,18.93
2022-09-06T01:56:21.886Z,18.88
2022-09-06T01:59:39.329Z,18.79
2022-09-06T02:03:05.497Z,18.32
2022-09-06T02:06:31.789Z,18.56
2022-09-06T02:10:00.177Z,18.42
2022-09-06T02:13:24.703Z,18.48
2022-09-06T02:16:50.612Z,18.44
2022-09-06T02:20:06.794Z,18.24
2022-09-06T02:23:33.319Z,18.34
2022-09-06T02:26:55.286Z,18.24
2022-09-06T02:29:56.797Z,18.29
2022-09-06T02:33:07.741Z,18.24
2022-09-06T02:36:09.582Z,18.21
2022-09-06T02:39:12.019Z,18.17
2022-09-06T02:42:15.262Z,18.07
2022-09-06T02:45:16.676Z,18.11
2022-09-06T02:48:18.166Z,18.11
2022-09-06T02:51:19.700Z,17.99
2022-09-06T02:54:21.292Z,18.01
2022-09-06T02:57:22.824Z,17.89
2022-09-06T03:00:25.052Z,18.06
2022-09-06T03:03:46.462Z,17.99
2022-09-06T03:07:03.640Z,17.92
2022-09-06T03:10:25.700Z,17.79
2022-09-06T03:13:28.337Z,17.73
2022-09-06T03:16:31.167Z,17.80
2022-09-06T03:19:52.613Z,17.80
2022-09-06T03:22:54.151Z,17.76
2022-09-06T03:25:56.312Z,17.72
2022-09-06T03:28:57.750Z,17.81
2022-09-06T03:31:59.235Z,17.74
2022-09-06T03:35:00.795Z,17.53
2022-09-06T03:38:02.368Z,17.74
2022-09-06T03:41:04.037Z,17.76
2022-09-06T03:44:05.918Z,17.66
2022-09-06T03:47:07.352Z,17.66
2022-09-06T03:50:09.040Z,17.76
2022-09-06T03:53:10.608Z,17.78
2022-09-06T03:56:12.319Z,17.68
2022-09-06T03:59:14.096Z,17.72
2022-09-06T04:02:16.994Z,17.94
2022-09-06T04:05:38.806Z,17.93
2022-09-06T04:09:00.486Z,17.89
2022-09-06T04:12:22.101Z,17.95
2022-09-06T04:15:46.300Z,18.00
2022-09-06T04:19:07.690Z,17.86
2022-09-06T04:22:29.371Z,17.98
2022-09-06T04:25:53.269Z,18.00
2022-09-06T04:29:15.008Z,18.01
2022-09-06T04:32:36.415Z,18.04
2022-09-06T04:35:39.058Z,18.04
2022-09-06T04:39:00.699Z,18.06
2022-09-06T04:42:02.277Z,18.05
2022-09-06T04:45:24.731Z,17.97
2022-09-06T04:48:47.238Z,18.00
2022-09-06T04:51:48.690Z,17.98
2022-09-06T04:54:50.205Z,17.89
2022-09-06T04:57:52.290Z,17.86
2022-09-06T05:00:53.846Z,17.81
2022-09-06T05:03:57.154Z,17.91
2022-09-06T05:07:05.047Z,17.81
2022-09-06T05:10:06.719Z,17.69
2022-09-06T05:13:08.467Z,17.86
2022-09-06T05:16:10.379Z,17.85
2022-09-06T05:19:12.526Z,17.95
2022-09-06T05:33:24.526Z,18.13
2022-09-06T05:36:27.760Z,18.23
2022-09-06T05:39:29.559Z,18.28
2022-09-06T05:42:50.994Z,18.18
2022-09-06T05:46:23.486Z,18.16
2022-09-06T05:59:15.147Z,19.46
2022-09-06T07:03:23.454Z,23.58
2022-09-06T07:59:16.904Z,22.96
2022-09-06T08:14:14.487Z,22.52
2022-09-06T09:04:56.567Z,25.03
2022-09-06T12:53:25.007Z,27.99
2022-09-06T12:56:39.884Z,27.69
2022-09-06T13:40:59.843Z,26.90
2022-09-06T13:44:30.888Z,27.60
2022-09-06T13:48:26.130Z,27.32
2022-09-06T13:51:45.619Z,27.40
2022-09-06T13:59:00.702Z,26.93
2022-09-06T14:02:22.376Z,27.00
2022-09-06T14:05:24.260Z,26.98
2022-09-06T14:08:43.415Z,26.95
2022-09-06T14:11:50.528Z,26.91
2022-09-06T14:14:51.994Z,26.84
2022-09-06T14:17:53.482Z,26.86
2022-09-06T14:32:05.777Z,26.72
2022-09-06T14:35:09.029Z,26.59
2022-09-06T14:38:15.608Z,26.53
2022-09-06T14:41:37.412Z,26.50
2022-09-06T14:44:59.850Z,26.50
2022-09-06T14:48:02.010Z,26.44
2022-09-06T14:51:15.877Z,26.40
2022-09-06T14:54:17.791Z,26.29
2022-09-06T14:57:20.581Z,26.36
2022-09-06T15:00:22.081Z,26.32
2022-09-06T15:03:23.723Z,26.37
2022-09-06T15:06:26.805Z,26.25
2022-09-06T15:09:29.383Z,26.27
2022-09-06T15:12:30.880Z,26.16
2022-09-06T15:15:32.471Z,26.12
2022-09-06T15:18:35.255Z,26.08
2022-09-06T15:21:37.450Z,25.97
2022-09-06T15:24:38.924Z,26.01
2022-09-06T15:27:40.783Z,25.81
2022-09-06T15:30:42.619Z,24.96
2022-09-06T15:34:05.348Z,22.67
2022-09-06T15:37:13.221Z,22.24
2022-09-06T15:40:35.093Z,21.47
2022-09-06T15:43:59.122Z,21.53
2022-09-06T15:47:32.584Z,21.58
2022-09-06T15:50:50.872Z,21.42
2022-09-06T15:53:53.299Z,21.70
2022-09-06T15:56:55.225Z,21.73
2022-09-06T16:11:35.407Z,21.81
2022-09-06T16:14:41.493Z,20.97
2022-09-06T16:18:06.584Z,22.01
2022-09-06T16:22:28.846Z,21.84
2022-09-06T16:25:50.798Z,21.53
2022-09-06T16:37:00.299Z,22.45
2022-09-06T16:40:03.121Z,22.75
2022-09-06T16:43:04.788Z,22.65
2022-09-06T16:46:06.880Z,22.49
2022-09-06T16:49:09.446Z,22.36
2022-09-06T16:52:43.207Z,22.12
2022-09-06T16:56:05.308Z,22.08
2022-09-06T16:59:26.712Z,21.98
2022-09-06T17:02:28.215Z,21.84
2022-09-06T17:05:29.703Z,21.99
2022-09-06T17:08:32.604Z,21.90
2022-09-06T17:11:34.429Z,21.72
2022-09-06T17:14:36.027Z,21.71
2022-09-06T17:17:37.484Z,21.80
2022-09-06T17:20:39.125Z,21.89
2022-09-06T17:23:40.667Z,21.79
2022-09-06T17:26:42.566Z,21.87
2022-09-06T17:29:43.974Z,21.84
2022-09-06T17:32:45.464Z,21.81
2022-09-06T17:35:47.699Z,21.88
2022-09-06T17:38:53.273Z,21.80
2022-09-06T17:42:15.594Z,21.62
2022-09-06T17:45:40.721Z,21.78
2022-09-06T17:49:02.464Z,21.64
2022-09-06T17:52:04.089Z,21.32
2022-09-06T17:55:05.942Z,21.11
2022-09-06T17:58:08.093Z,21.17
2022-09-06T18:01:13.451Z,21.03
2022-09-06T18:04:35.413Z,20.94
2022-09-06T18:07:37.783Z,20.91
2022-09-06T18:10:59.375Z,20.91
2022-09-06T18:14:05.132Z,20.97
2022-09-06T18:17:06.667Z,20.82
2022-09-06T18:20:08.766Z,20.80
2022-09-06T18:23:10.653Z,20.76
2022-09-06T18:26:32.130Z,20.77
2022-09-06T18:29:54.887Z,20.66
2022-09-06T18:33:16.605Z,20.59
2022-09-06T18:36:39.322Z,20.65
2022-09-06T18:40:20.690Z,20.62
2022-09-06T18:43:23.721Z,20.66
2022-09-06T18:46:25.306Z,20.60
2022-09-06T18:49:27.423Z,20.66
2022-09-06T18:52:28.891Z,20.60
2022-09-06T18:55:30.504Z,20.56
2022-09-06T18:58:32.928Z,20.57
2022-09-06T19:01:35.009Z,20.60
2022-09-06T19:04:36.768Z,20.57
2022-09-06T19:07:38.559Z,20.47
2022-09-06T19:10:40.009Z,20.18
2022-09-06T19:13:41.972Z,20.15
2022-09-06T19:16:43.869Z,20.03
2022-09-06T19:19:45.664Z,20.00
2022-09-06T19:22:50.994Z,20.01
2022-09-06T19:30:13.872Z,19.82
2022-09-06T19:41:42.164Z,19.78
2022-09-06T19:44:50.162Z,18.68
2022-09-06T19:56:44.447Z,19.77
2022-09-06T20:03:26.433Z,18.56
2022-09-06T20:06:32.069Z,19.63
2022-09-06T20:13:36.833Z,19.32
2022-09-06T20:16:41.820Z,19.36
2022-09-06T20:19:43.960Z,19.33
2022-09-06T20:23:06.021Z,19.38
2022-09-06T20:26:50.927Z,19.37
2022-09-06T20:30:12.818Z,19.34
2022-09-06T20:33:14.998Z,19.32
2022-09-06T20:36:20.821Z,19.50
2022-09-06T20:39:22.499Z,19.54
2022-09-06T20:42:24.037Z,19.49
2022-09-06T20:45:25.491Z,19.46
2022-09-06T20:48:27.507Z,19.38
2022-09-06T20:51:29.249Z,19.30
2022-09-06T20:54:30.727Z,19.31
2022-09-06T20:57:32.975Z,19.31
2022-09-06T21:00:36.247Z,19.30
2022-09-06T21:03:55.216Z,19.38
2022-09-06T21:06:56.684Z,19.29
2022-09-06T21:09:58.136Z,19.51
2022-09-06T21:12:59.557Z,19.59
2022-09-06T21:16:02.404Z,19.54
2022-09-06T21:19:15.118Z,19.58
2022-09-06T21:22:16.624Z,19.56
2022-09-06T21:25:18.112Z,19.56
2022-09-06T21:28:19.641Z,19.59
2022-09-06T21:31:23.754Z,19.58
2022-09-06T21:34:26.214Z,19.47
2022-09-06T21:37:47.845Z,19.66
2022-09-06T21:40:50.213Z,19.58
2022-09-06T21:43:54.005Z,19.66
2022-09-06T21:46:55.511Z,19.70
2022-09-06T21:49:57.177Z,19.51
2022-09-06T21:52:59.085Z,19.43
2022-09-06T21:56:20.836Z,19.38
2022-09-06T21:59:23.083Z,19.29
2022-09-06T22:02:44.644Z,19.39
2022-09-06T22:05:46.613Z,19.28
2022-09-06T22:08:48.309Z,19.35
2022-09-06T22:11:51.137Z,19.44
2022-09-06T22:14:52.608Z,19.52
2022-09-06T22:17:57.044Z,19.49
2022-09-06T22:21:05.549Z,19.42
2022-09-06T22:24:27.064Z,19.47
2022-09-06T22:27:48.515Z,19.47
2022-09-06T22:30:50.041Z,19.50
2022-09-06T22:33:51.533Z,19.43
2022-09-06T22:36:52.988Z,19.38
2022-09-06T22:44:31.251Z,19.28
2022-09-06T22:47:32.795Z,19.30
2022-09-06T22:54:26.293Z,18.93
2022-09-06T22:57:30.727Z,19.29
2022-09-06T23:00:35.581Z,19.24
2022-09-06T23:03:38.006Z,19.16
2022-09-06T23:06:49.384Z,19.02
2022-09-06T23:09:53.970Z,19.04
2022-09-06T23:13:18.839Z,18.93
2022-09-06T23:16:20.498Z,18.90
2022-09-06T23:19:22.554Z,18.83
2022-09-06T23:22:44.084Z,18.37
2022-09-06T23:25:46.398Z,18.75
2022-09-06T23:28:51.327Z,18.83
2022-09-06T23:31:56.557Z,18.45
2022-09-06T23:34:58.732Z,18.81
2022-09-06T23:38:03.194Z,18.81
2022-09-06T23:41:06.106Z,18.73
2022-09-06T23:44:07.647Z,18.78
2022-09-06T23:47:09.203Z,18.66
2022-09-06T23:50:10.735Z,18.72
2022-09-06T23:53:16.924Z,18.13
2022-09-06T23:56:18.563Z,18.68
2022-09-06T23:59:20.105Z,18.15
